Terminal Aerodrome Forecast
Issued by NWS Goodland, KS

Home | Current Version | Previous Version | Text Only | Print | Product List | Glossary On
Versions: 1 2 3 4 5 6 7 8 9 10 11 12 13
000
FTUS43 KGLD 202334
TAFGLD
TAF
KGLD 202334Z 2100/2124 05008KT P6SM FEW120 FEW250
     FM210500 05008KT P6SM OVC015
     FM210800 02009KT 6SM BR OVC003
     FM211300 02012KT P6SM VCSH OVC003
     FM211700 02014KT P6SM -FZDZ OVC003
     FM211900 01018KT 3SM -SN BLSN OVC003
     FM212200 36024G32KT 1SM -SN BLSN SCT003 OVC008=

USA.gov is the U.S. government's official web portal to all federal, state and local government web resources and services.